Create Custom Reports and Graphics: Custom Report

Latest Observations

Map

15 Minute Data

Lodi West

11 Stations

15 Minute Data | America/Los_Angeles
as of 12/12/19 2:42 PM PST
Station Date Time Temp (°F) RH (%) Dew Pt (°F) Wind Dir (°) Wind Spd (mph) Wind Gust (mph) Latest Rain (In) Daily Rain (In) Daily Min Temp (°F) Daily Max Temp (°F)
Claussen 12/12/19 1430 62.4   8.1 83   9 57.2   5.1 NW | 310 2.0   3.2 4.1   5.7 0.00 0.00 52.2   2.5 63.2   8.8
Clarksburg (CLK) 12/12/19 1430 65.0   10.3 83   10 59.9   6.9 SW | 218 3.8   1.4 9.1   5.0 0.00 0.05 52.1   4.8 65.4   9.2
Courtland-C3 12/12/19 1430 63.2   8.7 84   4 58.5   7.2 S | 186 3.6   1.9 6.7   3.8 0.00 0.00 51.7   4.1 66.2   10.7
Guard Rd (Lodi WSW) 12/12/19 1430 63.8   8.6 74   11 55.6   4.6 NNE | 12 1.1   1.7 3.3   1.9 0.00 0.00 52.7   4.0 65.3   9.0
Gorter - Wilson 12/12/19 1430 64.4   9.3 84   8 59.6   6.7 SSW | 205 4.0   2.5 7.6   4.6 0.00 0.00 52.2   5.4 67.1   11.2
Hood (HOD) 12/12/19 1430 64.5   8.6 84   10 59.4   5.5 S | 184 3.0   1.4 5.7   2.8 0.00 0.01 52.4   5.1 65.4   8.6
Pacific Fruit 12/12/19 1430 65.4   9.5 81   8 59.5   6.8 SSW | 196 3.5   3.1 8.1   6.2 0.00 0.00 53.3   3.9 66.8   9.7
Ryer Island South (RIS) 12/12/19 1430 61.6   8.0 95   2 60.1   7.4 SSW | 197 3.1   1.8 6.7   3.1 0.01 0.01 52.6   4.0 66.8   11.9
Utter - Wilson 12/12/19 1430 64.9   10.0 84   10 60.1   6.7 SW | 214 6.4   4.2 10.5   6.5 0.00 0.00 52.7   4.0 66.5   10.5
Clarksburg-3A2 12/12/19 1430 65.0   9.4 83   9 59.8   6.3 SW | 230 4.3   1.9 7.4   3.3 0.00 0.00 52.6   5.8 68.9   12.7
Max     65.4 95 60.1 - 6.4 10.5 0.01 0.05 53.3 68.9
Avg     64.0 84 59.0 - 3.5 6.9 0.00 - - -
Min     61.6 74 55.6 - 1.1 3.3 0.00 0.00 51.7 63.2

Lodi Central

Latest Observations

15 Minute Data | America/Los_Angeles
as of 12/12/19 2:42 PM PST
Station Date Time Temp (°F) Dew Pt (°F) RH (%) Wind Dir (°) Wind Spd (mph) Wind Gust (mph) Latest Rain (In) Daily Rain (In) Daily Min Temp (°F) Daily Max Temp (°F)
Galt West (GAW) 12/12/19 1430 65.1   9.1 56.6   5.2 74   11 S | 169 2.9   1.1 5.5   2.0 0.00 0.00 52.8   5.1 68.6   11.4
Valley Oak 12/12/19 1430 65.8   9.5 54.7   4.5 68   12 SSW | 197 2.7   1.9 4.8   2.2 0.00 0.00 52.5   5.2 66.7   9.9
Thornton 12/12/19 1430 66.4   10.1 57.1   6.5 72   9 WSW | 257 1.2   0.3 5.4   1.7 0.00 0.00 52.9   4.7 67.0   10.1
Kost Rd 12/12/19 1430 66.0   9.6 58.1   5.8 76   11 SSW | 192 2.7   1.0 5.1   1.4 0.00 0.00 53.0   4.6 66.7   9.4
DeVries Road-North 12/12/19 1430 64.4   8.6 56.7   5.4 76   9 SW | 218 1.2   0.7 4.1   0.0 0.00 0.00 52.4   5.0 66.8   10.1
Lodi (LangeTwins) 12/12/19 1430 64.7   8.5 57.4   5.6 77   8 WSW | 251 1.1   0.7 4.8   1.7 0.00 0.00 52.5   4.7 66.9   9.9
Acampo (ACP) 12/12/19 1415 68.4   9.5 53.3   3.2 59   14 WNW | 300 1.1   1.2 4.4   1.0 0.00 0.00 52.5   5.0 81.8   20.3
Lodi West (MDW) 12/12/19 1430 63.6   7.6 55.1   4.6 74   8 WNW | 299 1.3   0.4 3.5   0.4 0.00 0.00 52.1   3.5 65.3   8.6
Max     68.4 58.1 77 - 2.9 5.5 0.00 0.00 53.0 81.8
Avg     65.5 56.1 72 - 1.8 4.7 0.00 - - -
Min     63.6 53.3 59 - 1.1 3.5 0.00 0.00 52.1 65.3

Lodi South

19 Stations

15 Minute Data
as of 12/12/19 2:42 PM PST
Station Date Time Temp (°F) Dew Pt (°F) RH (%) Wind Spd (mph) Wind Dir (°) Wind Gust (mph) Latest Rain (In) Daily Rain (In) Daily Min Temp (°F) Daily Max Temp (°F)
Borden Hills 12/12/19 1430 68.0   8.9 57.9   5.0 70   10 3.4   0.5 WNW | 294 8.7   2.5 0.00 0.00 53.3   6.4 70.5   10.9
Collegeville (COL) 12/12/19 1430 64.3   8.5 55.6   4.4 73   11 1.9   3.4 WNW | 282 3.9   5.7 0.00 0.00 51.9   4.3 65.7   9.2
Galt-East (EGT) 12/12/19 1430 66.5   9.1 55.2   4.1 67   13 3.5   1.0 W | 264 7.0   2.2 0.00 0.01 53.6   6.9 67.1   9.0
Escalon (ESL) 12/12/19 1430 64.4   8.9 52.7   2.3 66   17 0.3   3.8 E | 99 1.1   6.1 0.00 0.00 52.0   4.0 65.0   8.9
Victor - N (Katusha) 12/12/19 1430 64.2   7.7 52.8   3.5 66   10 2.3   1.5 NW | 309 4.8   1.7 0.00 0.00 52.0   4.7 66.0   8.6
Gilbeau Ranch 12/12/19 1430 66.2   8.7 53.5   3.4 64   13 1.8   0.4 SW | 228 5.0   0.7 0.00 0.00 53.6   7.3 69.2   11.4
Lodi 9/1/19 2315 68.3   2.1 54.6   2.0 61   8 0.0   0.0 N | 0 0.0   0.6 0.00 0.00 54.3   2.9 96.9   0.2
Linden (LIN) 12/12/19 1430 65.4   8.9 54.6   3.5 68   14 2.5   1.0 NW | 316 4.6   3.2 0.00 0.00 53.5   5.0 67.7   10.0
Live Oak (LIV) 12/12/19 1430 63.8   7.0 55.0   3.6 73   9 2.0   1.1 W | 274 4.2   2.8 0.00 0.01 52.7   4.7 65.1   6.9
Lockeford (LOC) 12/12/19 1430 65.2   7.7 - 0   0 2.5   0.0 W | 278 5.4   1.7 0.00 0.00 53.6   6.6 66.5   8.4
Lone Oak-L28 12/12/19 1430 64.3   7.6 54.4   3.6 70   10 2.4   2.0 W | 265 4.6   4.3 0.00 0.00 52.7   7.9 67.6   10.4
Sheldon (SHL) 12/12/19 1430 64.9   9.2 55.3   3.9 71   15 2.3   1.3 WSW | 257 4.4   1.0 0.00 0.00 52.3   7.7 66.8   9.3
Sierra Loma-L27 12/12/19 1430 66.5   8.6 56.4   4.8 70   10 3.5   0.5 S | 189 7.5   1.1 0.00 0.00 52.0   6.0 70.5   12.0
Simmerhorn (SIM) 12/12/19 1430 64.9   7.9 54.0   4.7 68   8 - - - - - 53.1   7.2 66.6   9.5
Sloughhouse (SLH) 12/12/19 1400 64.0   7.1 45.1   6.5 50   0 0.5   0.5 WSW | 242 3.8   3.8 0.00 0.00 53.1   9.1 64.6   7.1
5 Wells 12/12/19 1430 65.7   8.2 54.9   4.6 68   9 2.1   0.9 SW | 227 5.1   0.2 0.00 0.00 53.5   7.5 67.8   10.2
Max     68.0 57.9 73 3.5 - 8.7 0.00 0.01 53.6 70.5
Avg     65.2 54.1 63 2.2 - 5.0 0.00 - - -
Min     63.8 45.1 0 0.3 - 1.1 0.00 0.00 51.9 64.6